sensor_id;sensor_type;location;lat;lon;timestamp;P1;durP1;ratioP1;P2;durP2;ratioP2
21589;SDS011;10957;50.968;6.828;2023-08-06T00:02:59;3.72;;;3.50;;
21589;SDS011;10957;50.968;6.828;2023-08-06T00:08:00;2.80;;;2.70;;
21589;SDS011;10957;50.968;6.828;2023-08-06T00:13:03;2.90;;;2.70;;
21589;SDS011;10957;50.968;6.828;2023-08-06T00:18:04;2.90;;;2.80;;
21589;SDS011;10957;50.968;6.828;2023-08-06T00:23:05;3.05;;;2.95;;
21589;SDS011;10957;50.968;6.828;2023-08-06T00:28:06;3.00;;;2.90;;
21589;SDS011;10957;50.968;6.828;2023-08-06T00:33:08;2.80;;;2.70;;
21589;SDS011;10957;50.968;6.828;2023-08-06T00:38:09;3.00;;;2.90;;
21589;SDS011;10957;50.968;6.828;2023-08-06T00:43:10;2.88;;;2.78;;
21589;SDS011;10957;50.968;6.828;2023-08-06T00:48:12;2.90;;;2.80;;
21589;SDS011;10957;50.968;6.828;2023-08-06T00:53:14;3.33;;;3.17;;
21589;SDS011;10957;50.968;6.828;2023-08-06T00:58:16;3.00;;;2.80;;
21589;SDS011;10957;50.968;6.828;2023-08-06T01:03:17;3.00;;;2.90;;
21589;SDS011;10957;50.968;6.828;2023-08-06T01:08:30;3.08;;;2.97;;
21589;SDS011;10957;50.968;6.828;2023-08-06T01:18:43;2.80;;;2.70;;
21589;SDS011;10957;50.968;6.828;2023-08-06T01:23:47;2.55;;;2.45;;
21589;SDS011;10957;50.968;6.828;2023-08-06T01:33:58;2.85;;;2.75;;
21589;SDS011;10957;50.968;6.828;2023-08-06T01:39:01;3.00;;;2.90;;
21589;SDS011;10957;50.968;6.828;2023-08-06T01:44:03;2.78;;;2.67;;
21589;SDS011;10957;50.968;6.828;2023-08-06T01:49:06;2.90;;;2.80;;
21589;SDS011;10957;50.968;6.828;2023-08-06T01:54:07;2.70;;;2.60;;
21589;SDS011;10957;50.968;6.828;2023-08-06T01:59:08;2.88;;;2.78;;
21589;SDS011;10957;50.968;6.828;2023-08-06T02:04:10;3.35;;;3.05;;
21589;SDS011;10957;50.968;6.828;2023-08-06T02:09:11;2.80;;;2.70;;
21589;SDS011;10957;50.968;6.828;2023-08-06T02:14:12;2.55;;;2.45;;
21589;SDS011;10957;50.968;6.828;2023-08-06T02:19:14;2.72;;;2.63;;
21589;SDS011;10957;50.968;6.828;2023-08-06T02:24:15;2.60;;;2.50;;
21589;SDS011;10957;50.968;6.828;2023-08-06T02:29:17;2.60;;;2.50;;
21589;SDS011;10957;50.968;6.828;2023-08-06T02:34:18;2.70;;;2.60;;
21589;SDS011;10957;50.968;6.828;2023-08-06T02:39:21;2.60;;;2.50;;
21589;SDS011;10957;50.968;6.828;2023-08-06T02:51:03;2.50;;;2.40;;
21589;SDS011;10957;50.968;6.828;2023-08-06T02:56:06;2.30;;;2.20;;
21589;SDS011;10957;50.968;6.828;2023-08-06T03:01:29;3.15;;;3.05;;
21589;SDS011;10957;50.968;6.828;2023-08-06T03:06:36;2.70;;;2.60;;
21589;SDS011;10957;50.968;6.828;2023-08-06T03:11:38;2.50;;;2.40;;
21589;SDS011;10957;50.968;6.828;2023-08-06T03:16:44;2.80;;;2.70;;
21589;SDS011;10957;50.968;6.828;2023-08-06T03:21:48;2.70;;;2.60;;
21589;SDS011;10957;50.968;6.828;2023-08-06T03:26:50;2.60;;;2.50;;
21589;SDS011;10957;50.968;6.828;2023-08-06T03:31:52;2.40;;;2.30;;
21589;SDS011;10957;50.968;6.828;2023-08-06T03:36:53;2.40;;;2.30;;
21589;SDS011;10957;50.968;6.828;2023-08-06T03:41:55;2.60;;;2.50;;
21589;SDS011;10957;50.968;6.828;2023-08-06T03:46:57;2.60;;;2.50;;
21589;SDS011;10957;50.968;6.828;2023-08-06T03:51:59;2.58;;;2.47;;
21589;SDS011;10957;50.968;6.828;2023-08-06T03:57:00;2.50;;;2.40;;
21589;SDS011;10957;50.968;6.828;2023-08-06T04:02:01;3.35;;;3.15;;
21589;SDS011;10957;50.968;6.828;2023-08-06T04:07:03;2.63;;;2.53;;
21589;SDS011;10957;50.968;6.828;2023-08-06T04:12:05;2.50;;;2.40;;
21589;SDS011;10957;50.968;6.828;2023-08-06T04:17:06;3.70;;;3.45;;
21589;SDS011;10957;50.968;6.828;2023-08-06T04:22:08;2.50;;;2.40;;
21589;SDS011;10957;50.968;6.828;2023-08-06T04:27:10;2.70;;;2.60;;
21589;SDS011;10957;50.968;6.828;2023-08-06T04:32:12;2.50;;;2.40;;
21589;SDS011;10957;50.968;6.828;2023-08-06T04:37:18;3.35;;;3.15;;
21589;SDS011;10957;50.968;6.828;2023-08-06T04:42:19;2.92;;;2.75;;
21589;SDS011;10957;50.968;6.828;2023-08-06T04:47:21;2.50;;;2.40;;
21589;SDS011;10957;50.968;6.828;2023-08-06T04:52:22;2.20;;;2.10;;
21589;SDS011;10957;50.968;6.828;2023-08-06T04:57:24;2.30;;;2.20;;
21589;SDS011;10957;50.968;6.828;2023-08-06T05:02:25;2.22;;;2.13;;
21589;SDS011;10957;50.968;6.828;2023-08-06T05:07:26;2.17;;;2.08;;
21589;SDS011;10957;50.968;6.828;2023-08-06T05:12:27;2.00;;;1.90;;
21589;SDS011;10957;50.968;6.828;2023-08-06T05:17:29;2.40;;;2.30;;
21589;SDS011;10957;50.968;6.828;2023-08-06T05:22:30;2.22;;;2.13;;
21589;SDS011;10957;50.968;6.828;2023-08-06T05:27:31;2.30;;;2.20;;
21589;SDS011;10957;50.968;6.828;2023-08-06T05:32:32;2.33;;;2.22;;
21589;SDS011;10957;50.968;6.828;2023-08-06T05:37:34;2.40;;;2.30;;
21589;SDS011;10957;50.968;6.828;2023-08-06T05:42:35;2.28;;;2.17;;
21589;SDS011;10957;50.968;6.828;2023-08-06T05:47:36;2.10;;;2.00;;
21589;SDS011;10957;50.968;6.828;2023-08-06T05:52:38;2.30;;;2.20;;
21589;SDS011;10957;50.968;6.828;2023-08-06T05:57:39;2.00;;;1.90;;
21589;SDS011;10957;50.968;6.828;2023-08-06T06:02:40;2.17;;;2.08;;
21589;SDS011;10957;50.968;6.828;2023-08-06T06:07:45;2.20;;;2.10;;
21589;SDS011;10957;50.968;6.828;2023-08-06T06:12:46;2.22;;;2.13;;
21589;SDS011;10957;50.968;6.828;2023-08-06T06:17:47;2.53;;;2.42;;
21589;SDS011;10957;50.968;6.828;2023-08-06T06:22:48;2.50;;;2.40;;
21589;SDS011;10957;50.968;6.828;2023-08-06T06:27:50;2.20;;;2.10;;
21589;SDS011;10957;50.968;6.828;2023-08-06T06:32:51;2.13;;;2.03;;
21589;SDS011;10957;50.968;6.828;2023-08-06T06:37:53;2.13;;;2.03;;
21589;SDS011;10957;50.968;6.828;2023-08-06T06:42:54;2.00;;;1.90;;
21589;SDS011;10957;50.968;6.828;2023-08-06T06:47:56;1.98;;;1.90;;
21589;SDS011;10957;50.968;6.828;2023-08-06T06:52:57;1.90;;;1.85;;
21589;SDS011;10957;50.968;6.828;2023-08-06T06:57:58;2.00;;;1.90;;
21589;SDS011;10957;50.968;6.828;2023-08-06T07:03:00;1.70;;;1.70;;
21589;SDS011;10957;50.968;6.828;2023-08-06T07:08:01;1.90;;;1.80;;
21589;SDS011;10957;50.968;6.828;2023-08-06T07:13:02;1.60;;;1.60;;
21589;SDS011;10957;50.968;6.828;2023-08-06T07:18:04;1.83;;;1.77;;
21589;SDS011;10957;50.968;6.828;2023-08-06T07:23:05;1.80;;;1.80;;
21589;SDS011;10957;50.968;6.828;2023-08-06T07:28:07;1.70;;;1.70;;
21589;SDS011;10957;50.968;6.828;2023-08-06T07:33:08;1.70;;;1.70;;
21589;SDS011;10957;50.968;6.828;2023-08-06T07:38:09;1.70;;;1.70;;
21589;SDS011;10957;50.968;6.828;2023-08-06T07:43:10;1.65;;;1.65;;
21589;SDS011;10957;50.968;6.828;2023-08-06T07:48:11;1.95;;;1.88;;
21589;SDS011;10957;50.968;6.828;2023-08-06T07:53:13;3.05;;;2.75;;
21589;SDS011;10957;50.968;6.828;2023-08-06T07:58:14;2.00;;;1.90;;
21589;SDS011;10957;50.968;6.828;2023-08-06T08:03:15;2.00;;;1.90;;
21589;SDS011;10957;50.968;6.828;2023-08-06T08:08:17;1.60;;;1.60;;
21589;SDS011;10957;50.968;6.828;2023-08-06T08:13:18;1.50;;;1.50;;
21589;SDS011;10957;50.968;6.828;2023-08-06T08:18:20;1.70;;;1.70;;
21589;SDS011;10957;50.968;6.828;2023-08-06T08:23:21;2.20;;;2.10;;
21589;SDS011;10957;50.968;6.828;2023-08-06T08:28:22;1.70;;;1.70;;
21589;SDS011;10957;50.968;6.828;2023-08-06T08:33:24;1.70;;;1.70;;
21589;SDS011;10957;50.968;6.828;2023-08-06T08:38:25;1.70;;;1.70;;
21589;SDS011;10957;50.968;6.828;2023-08-06T08:43:26;2.00;;;1.90;;
21589;SDS011;10957;50.968;6.828;2023-08-06T08:48:28;2.08;;;1.98;;
21589;SDS011;10957;50.968;6.828;2023-08-06T08:53:29;1.80;;;1.80;;
21589;SDS011;10957;50.968;6.828;2023-08-06T08:58:33;1.80;;;1.80;;
21589;SDS011;10957;50.968;6.828;2023-08-06T09:03:34;2.10;;;2.00;;
21589;SDS011;10957;50.968;6.828;2023-08-06T09:08:39;8.68;;;2.63;;
21589;SDS011;10957;50.968;6.828;2023-08-06T09:13:47;2.00;;;1.90;;
21589;SDS011;10957;50.968;6.828;2023-08-06T09:18:48;2.42;;;2.33;;
21589;SDS011;10957;50.968;6.828;2023-08-06T09:23:50;2.20;;;2.10;;
21589;SDS011;10957;50.968;6.828;2023-08-06T09:28:52;2.13;;;2.03;;
21589;SDS011;10957;50.968;6.828;2023-08-06T09:33:53;2.15;;;2.05;;
21589;SDS011;10957;50.968;6.828;2023-08-06T09:38:54;1.75;;;1.70;;
21589;SDS011;10957;50.968;6.828;2023-08-06T09:43:56;1.60;;;1.55;;
21589;SDS011;10957;50.968;6.828;2023-08-06T09:48:57;2.00;;;1.90;;
21589;SDS011;10957;50.968;6.828;2023-08-06T09:53:58;1.90;;;1.90;;
21589;SDS011;10957;50.968;6.828;2023-08-06T09:59:01;2.10;;;2.00;;
21589;SDS011;10957;50.968;6.828;2023-08-06T10:04:03;1.80;;;1.80;;
21589;SDS011;10957;50.968;6.828;2023-08-06T10:09:08;1.90;;;1.80;;
21589;SDS011;10957;50.968;6.828;2023-08-06T10:14:15;1.70;;;1.70;;
21589;SDS011;10957;50.968;6.828;2023-08-06T10:19:21;1.60;;;1.60;;
21589;SDS011;10957;50.968;6.828;2023-08-06T10:24:24;1.55;;;1.55;;
21589;SDS011;10957;50.968;6.828;2023-08-06T10:29:35;1.02;;;1.02;;
21589;SDS011;10957;50.968;6.828;2023-08-06T10:34:58;1.10;;;1.10;;
21589;SDS011;10957;50.968;6.828;2023-08-06T10:39:59;1.30;;;1.30;;
21589;SDS011;10957;50.968;6.828;2023-08-06T10:45:15;1.67;;;1.58;;
21589;SDS011;10957;50.968;6.828;2023-08-06T10:50:20;1.50;;;1.50;;
21589;SDS011;10957;50.968;6.828;2023-08-06T10:55:22;1.10;;;1.10;;
21589;SDS011;10957;50.968;6.828;2023-08-06T11:00:24;1.10;;;1.10;;
21589;SDS011;10957;50.968;6.828;2023-08-06T11:05:25;1.10;;;1.10;;
21589;SDS011;10957;50.968;6.828;2023-08-06T11:10:27;1.05;;;1.05;;
21589;SDS011;10957;50.968;6.828;2023-08-06T11:15:29;1.00;;;1.00;;
21589;SDS011;10957;50.968;6.828;2023-08-06T11:20:33;1.00;;;1.00;;
21589;SDS011;10957;50.968;6.828;2023-08-06T11:25:55;1.20;;;1.20;;
21589;SDS011;10957;50.968;6.828;2023-08-06T11:30:57;1.98;;;1.63;;
21589;SDS011;10957;50.968;6.828;2023-08-06T11:36:03;1.35;;;1.25;;
21589;SDS011;10957;50.968;6.828;2023-08-06T11:41:06;2.45;;;1.40;;
21589;SDS011;10957;50.968;6.828;2023-08-06T11:46:07;1.40;;;1.40;;
21589;SDS011;10957;50.968;6.828;2023-08-06T11:51:12;1.25;;;1.25;;
21589;SDS011;10957;50.968;6.828;2023-08-06T11:56:16;1.10;;;1.10;;
21589;SDS011;10957;50.968;6.828;2023-08-06T12:01:17;1.70;;;1.60;;
21589;SDS011;10957;50.968;6.828;2023-08-06T12:06:19;1.48;;;1.38;;
21589;SDS011;10957;50.968;6.828;2023-08-06T12:11:21;1.75;;;1.65;;
21589;SDS011;10957;50.968;6.828;2023-08-06T12:16:22;1.30;;;1.30;;
21589;SDS011;10957;50.968;6.828;2023-08-06T12:21:24;1.60;;;1.60;;
21589;SDS011;10957;50.968;6.828;2023-08-06T12:26:25;1.55;;;1.55;;
21589;SDS011;10957;50.968;6.828;2023-08-06T12:31:27;1.70;;;1.70;;
21589;SDS011;10957;50.968;6.828;2023-08-06T12:36:28;1.60;;;1.60;;
21589;SDS011;10957;50.968;6.828;2023-08-06T12:41:30;2.20;;;2.10;;
21589;SDS011;10957;50.968;6.828;2023-08-06T12:46:31;1.20;;;1.20;;
21589;SDS011;10957;50.968;6.828;2023-08-06T12:58:33;1.20;;;1.20;;
21589;SDS011;10957;50.968;6.828;2023-08-06T13:03:35;1.35;;;1.35;;
21589;SDS011;10957;50.968;6.828;2023-08-06T13:08:36;1.50;;;1.40;;
21589;SDS011;10957;50.968;6.828;2023-08-06T13:13:38;1.30;;;1.30;;
21589;SDS011;10957;50.968;6.828;2023-08-06T13:18:40;1.48;;;1.48;;
21589;SDS011;10957;50.968;6.828;2023-08-06T13:23:41;2.20;;;2.08;;
21589;SDS011;10957;50.968;6.828;2023-08-06T13:28:42;9.20;;;2.70;;
21589;SDS011;10957;50.968;6.828;2023-08-06T13:33:45;2.28;;;2.17;;
21589;SDS011;10957;50.968;6.828;2023-08-06T13:38:46;1.33;;;1.33;;
21589;SDS011;10957;50.968;6.828;2023-08-06T13:43:47;1.20;;;1.20;;
21589;SDS011;10957;50.968;6.828;2023-08-06T13:48:49;1.20;;;1.20;;
21589;SDS011;10957;50.968;6.828;2023-08-06T13:53:51;1.77;;;1.67;;
21589;SDS011;10957;50.968;6.828;2023-08-06T13:58:54;5.78;;;1.60;;
21589;SDS011;10957;50.968;6.828;2023-08-06T14:03:56;1.42;;;1.33;;
21589;SDS011;10957;50.968;6.828;2023-08-06T14:08:57;1.20;;;1.20;;
21589;SDS011;10957;50.968;6.828;2023-08-06T14:13:58;2.03;;;1.92;;
21589;SDS011;10957;50.968;6.828;2023-08-06T14:19:01;2.05;;;1.95;;
21589;SDS011;10957;50.968;6.828;2023-08-06T14:24:02;1.40;;;1.40;;
21589;SDS011;10957;50.968;6.828;2023-08-06T14:29:04;1.60;;;1.52;;
21589;SDS011;10957;50.968;6.828;2023-08-06T14:34:05;1.40;;;1.40;;
21589;SDS011;10957;50.968;6.828;2023-08-06T14:39:07;1.30;;;1.30;;
21589;SDS011;10957;50.968;6.828;2023-08-06T14:44:08;2.05;;;1.95;;
21589;SDS011;10957;50.968;6.828;2023-08-06T14:49:09;1.30;;;1.30;;
21589;SDS011;10957;50.968;6.828;2023-08-06T14:54:11;1.48;;;1.48;;
21589;SDS011;10957;50.968;6.828;2023-08-06T14:59:12;1.40;;;1.40;;
21589;SDS011;10957;50.968;6.828;2023-08-06T15:04:13;1.70;;;1.70;;
21589;SDS011;10957;50.968;6.828;2023-08-06T15:09:15;1.70;;;1.70;;
21589;SDS011;10957;50.968;6.828;2023-08-06T15:14:16;1.50;;;1.50;;
21589;SDS011;10957;50.968;6.828;2023-08-06T15:19:17;1.52;;;1.52;;
21589;SDS011;10957;50.968;6.828;2023-08-06T15:24:20;1.40;;;1.40;;
21589;SDS011;10957;50.968;6.828;2023-08-06T15:29:22;2.30;;;2.20;;
21589;SDS011;10957;50.968;6.828;2023-08-06T15:34:23;6.18;;;2.22;;
21589;SDS011;10957;50.968;6.828;2023-08-06T15:39:25;1.73;;;1.67;;
21589;SDS011;10957;50.968;6.828;2023-08-06T15:44:26;1.60;;;1.60;;
21589;SDS011;10957;50.968;6.828;2023-08-06T15:49:27;1.40;;;1.40;;
21589;SDS011;10957;50.968;6.828;2023-08-06T15:54:28;1.60;;;1.60;;
21589;SDS011;10957;50.968;6.828;2023-08-06T15:59:31;1.70;;;1.70;;
21589;SDS011;10957;50.968;6.828;2023-08-06T16:04:32;1.67;;;1.65;;
21589;SDS011;10957;50.968;6.828;2023-08-06T16:09:34;1.60;;;1.60;;
21589;SDS011;10957;50.968;6.828;2023-08-06T16:14:35;2.40;;;2.25;;
21589;SDS011;10957;50.968;6.828;2023-08-06T16:19:37;1.50;;;1.50;;
21589;SDS011;10957;50.968;6.828;2023-08-06T16:24:38;1.50;;;1.50;;
21589;SDS011;10957;50.968;6.828;2023-08-06T16:29:40;1.50;;;1.50;;
21589;SDS011;10957;50.968;6.828;2023-08-06T16:34:41;2.90;;;2.00;;
21589;SDS011;10957;50.968;6.828;2023-08-06T16:39:42;1.40;;;1.40;;
21589;SDS011;10957;50.968;6.828;2023-08-06T16:44:44;1.55;;;1.55;;
21589;SDS011;10957;50.968;6.828;2023-08-06T16:49:45;1.40;;;1.40;;
21589;SDS011;10957;50.968;6.828;2023-08-06T16:54:53;1.45;;;1.45;;
21589;SDS011;10957;50.968;6.828;2023-08-06T16:59:54;1.40;;;1.40;;
21589;SDS011;10957;50.968;6.828;2023-08-06T17:04:56;1.50;;;1.50;;
21589;SDS011;10957;50.968;6.828;2023-08-06T17:09:57;1.40;;;1.40;;
21589;SDS011;10957;50.968;6.828;2023-08-06T17:14:58;1.40;;;1.40;;
21589;SDS011;10957;50.968;6.828;2023-08-06T17:20:00;1.60;;;1.60;;
21589;SDS011;10957;50.968;6.828;2023-08-06T17:25:02;1.90;;;1.80;;
21589;SDS011;10957;50.968;6.828;2023-08-06T17:30:04;1.30;;;1.30;;
21589;SDS011;10957;50.968;6.828;2023-08-06T17:35:07;1.50;;;1.50;;
21589;SDS011;10957;50.968;6.828;2023-08-06T17:40:14;1.60;;;1.60;;
21589;SDS011;10957;50.968;6.828;2023-08-06T17:45:24;1.70;;;1.70;;
21589;SDS011;10957;50.968;6.828;2023-08-06T17:50:25;1.70;;;1.70;;
21589;SDS011;10957;50.968;6.828;2023-08-06T17:55:26;1.63;;;1.52;;
21589;SDS011;10957;50.968;6.828;2023-08-06T18:00:27;1.70;;;1.70;;
21589;SDS011;10957;50.968;6.828;2023-08-06T18:05:29;1.50;;;1.50;;
21589;SDS011;10957;50.968;6.828;2023-08-06T18:10:33;1.77;;;1.77;;
21589;SDS011;10957;50.968;6.828;2023-08-06T18:15:34;1.83;;;1.80;;
21589;SDS011;10957;50.968;6.828;2023-08-06T18:20:36;1.50;;;1.50;;
21589;SDS011;10957;50.968;6.828;2023-08-06T18:25:37;1.50;;;1.50;;
21589;SDS011;10957;50.968;6.828;2023-08-06T18:30:41;1.60;;;1.60;;
21589;SDS011;10957;50.968;6.828;2023-08-06T18:35:42;1.45;;;1.45;;
21589;SDS011;10957;50.968;6.828;2023-08-06T18:40:44;1.80;;;1.80;;
21589;SDS011;10957;50.968;6.828;2023-08-06T18:45:45;2.10;;;2.00;;
21589;SDS011;10957;50.968;6.828;2023-08-06T18:50:47;1.95;;;1.90;;
21589;SDS011;10957;50.968;6.828;2023-08-06T18:55:48;1.77;;;1.77;;
21589;SDS011;10957;50.968;6.828;2023-08-06T19:00:50;2.53;;;2.33;;
21589;SDS011;10957;50.968;6.828;2023-08-06T19:06:01;1.58;;;1.58;;
21589;SDS011;10957;50.968;6.828;2023-08-06T19:11:05;1.58;;;1.58;;
21589;SDS011;10957;50.968;6.828;2023-08-06T19:16:06;1.45;;;1.45;;
21589;SDS011;10957;50.968;6.828;2023-08-06T19:21:07;4.63;;;1.83;;
21589;SDS011;10957;50.968;6.828;2023-08-06T19:26:09;1.60;;;1.60;;
21589;SDS011;10957;50.968;6.828;2023-08-06T19:31:10;1.50;;;1.50;;
21589;SDS011;10957;50.968;6.828;2023-08-06T19:36:11;1.40;;;1.40;;
21589;SDS011;10957;50.968;6.828;2023-08-06T19:41:13;1.30;;;1.30;;
21589;SDS011;10957;50.968;6.828;2023-08-06T19:46:15;1.20;;;1.20;;
21589;SDS011;10957;50.968;6.828;2023-08-06T19:51:16;1.67;;;1.63;;
21589;SDS011;10957;50.968;6.828;2023-08-06T19:56:19;3.60;;;2.97;;
21589;SDS011;10957;50.968;6.828;2023-08-06T20:01:20;1.50;;;1.50;;
21589;SDS011;10957;50.968;6.828;2023-08-06T20:06:21;2.58;;;2.38;;
21589;SDS011;10957;50.968;6.828;2023-08-06T20:11:27;2.03;;;1.90;;
21589;SDS011;10957;50.968;6.828;2023-08-06T20:16:29;1.60;;;1.60;;
21589;SDS011;10957;50.968;6.828;2023-08-06T20:21:33;1.70;;;1.60;;
21589;SDS011;10957;50.968;6.828;2023-08-06T20:26:35;1.48;;;1.48;;
21589;SDS011;10957;50.968;6.828;2023-08-06T20:31:36;1.60;;;1.60;;
21589;SDS011;10957;50.968;6.828;2023-08-06T20:36:38;2.70;;;2.60;;
21589;SDS011;10957;50.968;6.828;2023-08-06T20:41:39;1.60;;;1.60;;
21589;SDS011;10957;50.968;6.828;2023-08-06T20:46:41;2.72;;;2.50;;
21589;SDS011;10957;50.968;6.828;2023-08-06T20:51:43;2.10;;;2.00;;
21589;SDS011;10957;50.968;6.828;2023-08-06T20:56:45;1.52;;;1.52;;
21589;SDS011;10957;50.968;6.828;2023-08-06T21:01:46;1.70;;;1.70;;
21589;SDS011;10957;50.968;6.828;2023-08-06T21:06:48;1.70;;;1.70;;
21589;SDS011;10957;50.968;6.828;2023-08-06T21:11:50;1.75;;;1.75;;
21589;SDS011;10957;50.968;6.828;2023-08-06T21:16:52;1.70;;;1.70;;
21589;SDS011;10957;50.968;6.828;2023-08-06T21:21:53;1.77;;;1.73;;
21589;SDS011;10957;50.968;6.828;2023-08-06T21:26:56;1.98;;;1.88;;
21589;SDS011;10957;50.968;6.828;2023-08-06T21:31:58;1.70;;;1.70;;
21589;SDS011;10957;50.968;6.828;2023-08-06T21:37:00;1.60;;;1.60;;
21589;SDS011;10957;50.968;6.828;2023-08-06T21:42:01;1.75;;;1.73;;
21589;SDS011;10957;50.968;6.828;2023-08-06T21:47:03;2.03;;;1.92;;
21589;SDS011;10957;50.968;6.828;2023-08-06T21:52:05;7.95;;;2.40;;
21589;SDS011;10957;50.968;6.828;2023-08-06T21:57:07;1.80;;;1.80;;
21589;SDS011;10957;50.968;6.828;2023-08-06T22:02:08;1.70;;;1.70;;
21589;SDS011;10957;50.968;6.828;2023-08-06T22:07:09;2.28;;;2.17;;
21589;SDS011;10957;50.968;6.828;2023-08-06T22:12:11;1.60;;;1.60;;
21589;SDS011;10957;50.968;6.828;2023-08-06T22:17:13;1.80;;;1.80;;
21589;SDS011;10957;50.968;6.828;2023-08-06T22:22:14;3.25;;;2.20;;
21589;SDS011;10957;50.968;6.828;2023-08-06T22:27:16;1.70;;;1.70;;
21589;SDS011;10957;50.968;6.828;2023-08-06T22:32:17;1.70;;;1.70;;
21589;SDS011;10957;50.968;6.828;2023-08-06T22:37:18;1.70;;;1.70;;
21589;SDS011;10957;50.968;6.828;2023-08-06T22:42:20;2.53;;;2.35;;
21589;SDS011;10957;50.968;6.828;2023-08-06T22:47:21;2.28;;;2.08;;
21589;SDS011;10957;50.968;6.828;2023-08-06T22:52:22;2.20;;;2.10;;
21589;SDS011;10957;50.968;6.828;2023-08-06T22:57:23;2.20;;;2.10;;
21589;SDS011;10957;50.968;6.828;2023-08-06T23:02:25;2.10;;;2.00;;
21589;SDS011;10957;50.968;6.828;2023-08-06T23:07:26;1.95;;;1.88;;
21589;SDS011;10957;50.968;6.828;2023-08-06T23:12:28;6.15;;;2.65;;
21589;SDS011;10957;50.968;6.828;2023-08-06T23:17:29;2.10;;;2.00;;
21589;SDS011;10957;50.968;6.828;2023-08-06T23:22:30;2.10;;;2.00;;
21589;SDS011;10957;50.968;6.828;2023-08-06T23:27:32;2.00;;;1.90;;
21589;SDS011;10957;50.968;6.828;2023-08-06T23:32:34;1.98;;;1.88;;
21589;SDS011;10957;50.968;6.828;2023-08-06T23:37:36;2.17;;;2.08;;
21589;SDS011;10957;50.968;6.828;2023-08-06T23:42:38;2.05;;;1.95;;
21589;SDS011;10957;50.968;6.828;2023-08-06T23:47:40;1.80;;;1.80;;
21589;SDS011;10957;50.968;6.828;2023-08-06T23:52:42;2.65;;;2.45;;
21589;SDS011;10957;50.968;6.828;2023-08-06T23:57:44;2.10;;;2.00;;
